Muzaffarabad Weather



Muzaffarabad's Current Weather

Temprature 17.75o clear sky

clear sky

Rain: 0 %

Min Temprature17.75o
Max Temprature17.75o
Humidity69
Wind Speed1.92 m/h
Sun Rise05:32:39
Sun Set18:45:34
Current Time: 23-Aug-2019 05:38:48
Lat/Lon: 34.37, 73.47




Muzaffarabad's Geo Location



Muzaffarabad's Weather Forecast

Time Overall Temp Min Temp Max Temp Humidity Wind Speed Rain
23-Aug-2019 (Fri)
08:00:00 clear sky 22.900 22.897 22.900 61 1.3 m/h 0 %
11:00:00 clear sky 26.850 26.850 26.850 52 1.36 m/h 0 %
14:00:00 clear sky 27.730 27.730 27.731 49 1.75 m/h 0 %
17:00:00 clear sky 26.910 26.910 26.911 59 1.78 m/h 0 %
20:00:00 clear sky 20.350 20.350 20.350 83 0.5 m/h 0 %
23:00:00 clear sky 19.442 19.442 19.442 81 1.74 m/h 0 %
24-Aug-2019 (Sat)
02:00:00 clear sky 18.931 18.931 18.931 73 2.18 m/h 0 %
05:00:00 clear sky 18.655 18.655 18.655 63 2.1 m/h 0 %
08:00:00 clear sky 23.497 23.497 23.497 57 1.55 m/h 0 %
11:00:00 clear sky 27.469 27.469 27.469 48 1.49 m/h 0 %
14:00:00 clear sky 28.369 28.369 28.369 48 2.32 m/h 0 %
17:00:00 clear sky 27.323 27.323 27.323 58 1.61 m/h 0 %
20:00:00 clear sky 20.950 20.950 20.950 78 0.72 m/h 0 %
23:00:00 clear sky 19.969 19.969 19.969 76 1.79 m/h 0 %
25-Aug-2019 (Sun)
02:00:00 clear sky 19.731 19.731 19.731 68 2.18 m/h 0 %
05:00:00 light rain 19.357 19.357 19.357 58 2.36 m/h 19 %
08:00:00 clear sky 24.014 24.014 24.014 52 1.09 m/h 0 %
11:00:00 clear sky 27.316 27.316 27.316 50 1.69 m/h 0 %
14:00:00 clear sky 28.350 28.350 28.350 50 2.35 m/h 0 %
17:00:00 clear sky 27.450 27.450 27.450 59 1.9 m/h 0 %
20:00:00 clear sky 21.481 21.481 21.481 75 1.34 m/h 0 %
23:00:00 clear sky 20.511 20.511 20.511 74 1.82 m/h 0 %
26-Aug-2019 (Mon)
02:00:00 clear sky 20.165 20.165 20.165 69 2.29 m/h 0 %
05:00:00 clear sky 19.050 19.050 19.050 71 0.74 m/h 0 %
08:00:00 clear sky 23.367 23.367 23.367 64 0.46 m/h 0 %
11:00:00 light rain 26.472 26.472 26.472 57 1.69 m/h 38 %
14:00:00 light rain 27.884 27.884 27.884 54 2.25 m/h 19 %
17:00:00 light rain 26.320 26.320 26.320 65 1.78 m/h 19 %
20:00:00 light rain 21.072 21.072 21.072 83 0.77 m/h 31 %
23:00:00 clear sky 20.314 20.314 20.314 83 1.77 m/h 0 %
27-Aug-2019 (Tue)
02:00:00 clear sky 19.616 19.616 19.616 79 2.2 m/h 0 %
05:00:00 clear sky 19.050 19.050 19.050 75 1.87 m/h 0 %
08:00:00 clear sky 24.135 24.135 24.135 64 0.53 m/h 0 %
11:00:00 clear sky 27.536 27.536 27.536 56 2.09 m/h 0 %
14:00:00 clear sky 28.536 28.536 28.536 53 2.2 m/h 0 %
17:00:00 clear sky 27.265 27.265 27.265 63 2.19 m/h 0 %
20:00:00 light rain 21.250 21.250 21.250 83 0.17 m/h 69 %
23:00:00 light rain 20.650 20.650 20.650 82 1.72 m/h 69 %
28-Aug-2019 (Wed)
02:00:00 broken clouds 20.057 20.057 20.057 78 1.88 m/h 0 %
05:00:00 light rain 19.572 19.572 19.572 74 1.53 m/h 19 %

Famous Cities (61)